Flight Track Log - Related Links

Times and Time Zones

All times are in EDT time to prevent confusion due to time zone crossing. See the UAL3776 flight status page for this flight to view local times or setup timezone preferences in your user account.

Time Position Orientation Groundspeed Altitude Reporting Facility
EDT Latitude Longitude Course Direction KTS MPH feet Rate Location/Type
Mon 12:14:58 PM 35.1933 -80.9533 52° Northeast 151 174 1,700  Level Atlanta Center
Mon 12:16:35 PM 35.1061 -80.9694 189° South 237 273 5,100 2,354 Climbing Atlanta Center
Mon 12:17:36 PM 35.0914 -81.0511 258° West 270 311 7,900 2,488 Climbing Atlanta Center
Mon 12:18:00 PM 35.2447 -81.2167 North  Level FlightAware Approximate
Mon 12:18:38 PM 35.1042 -81.1444 280° West 305 351 10,200  Level Atlanta Center
Mon 12:19:00 PM 35.3154 -81.1163 52° Northeast  Level FlightAware Approximate
Mon 12:19:10 PM 35.1242 -81.1972 295° West 328 377 10,900  Level Atlanta Center
Mon 12:20:00 PM 35.3881 -81.0020 52° Northeast  Level FlightAware Approximate
Mon 12:21:00 PM 35.2875 -81.1601 52° Northeast  Level FlightAware Approximate
Mon 12:22:10 PM 35.3653 -81.0692 North 320 368 16,600  Level Atlanta Center
Mon 12:23:10 PM 35.4400 -80.9672 48° Northeast 372 428 18,000 1,650 Climbing Atlanta Center
Mon 12:24:10 PM 35.5581 -80.9344 13° North 394 453 19,900 1,750 Climbing Atlanta Center
Mon 12:25:10 PM 35.6742 -80.9889 339° North 400 460 21,500 1,467 Climbing Atlanta Center
Mon 12:27:10 PM 35.8950 -81.1575 328° Northwest 458 527 24,300 1,333 Climbing Atlanta Center
Mon 12:28:00 PM 36.0171 -80.8333 North  Level FlightAware Approximate
Mon 12:28:10 PM 36.0097 -81.2408 330° Northwest 466 536 25,500  Level Atlanta Center
Mon 12:29:10 PM 36.1125 -81.3556 318° Northwest 476 548 26,600 750 Climbing Atlanta Center
Mon 12:30:10 PM 36.2128 -81.4706 317° Northwest 488 562 27,000 200 Climbing Atlanta Center
Mon 12:31:10 PM 36.3172 -81.5831 319° Northwest 499 574 27,000 400 Level Atlanta Center
Mon 12:32:10 PM 36.4197 -81.7011 317° Northwest 504 580 27,800 1,000 Climbing Atlanta Center
Mon 12:33:10 PM 36.5219 -81.8172 318° Northwest 499 574 29,000 833 Climbing Atlanta Center
Mon 12:35:10 PM 36.7219 -82.0444 318° Northwest 505 581 30,300 918 Climbing Atlanta Center
Mon 12:37:25 PM 36.9697 -82.3222 318° Northwest 521 600 32,900 1,096 Climbing Indianapolis Center
Mon 12:38:27 PM 37.0739 -82.4408 318° Northwest 513 590 33,900 919 Climbing Indianapolis Center
Mon 12:39:29 PM 37.1761 -82.5592 317° Northwest 506 582 34,800 681 Climbing Indianapolis Center
Mon 12:41:00 PM 37.3063 -82.7055 318° Northwest  Level FlightAware Approximate
Mon 12:41:32 PM 37.3931 -82.8111 318° Northwest 493 567 36,000  Level Indianapolis Center
Mon 12:43:00 PM 37.5199 -82.9515 319° Northwest  Level FlightAware Approximate
Mon 12:44:37 PM 37.6964 -83.1658 316° Northwest 501 577 36,000  Level Indianapolis Center
Mon 12:45:38 PM 37.7983 -83.2872 317° Northwest 502 578 36,000  Level Indianapolis Center
Mon 12:47:00 PM 37.9307 -83.4022 326° Northwest  Level FlightAware Approximate
Mon 12:47:42 PM 38.0350 -83.5253 326° Northwest 504 580 36,000  Level Indianapolis Center
Mon 12:48:44 PM 38.1519 -83.6211 327° Northwest 499 574 36,000  Level Indianapolis Center
Mon 12:49:45 PM 38.2664 -83.7183 326° Northwest 494 568 36,000 -14 Level Indianapolis Center
Mon 12:50:00 PM 38.1081 -83.6494 316° Northwest  Level FlightAware Approximate
Mon 12:51:00 PM 38.3895 -83.8192 327° Northwest  Level FlightAware Approximate
Mon 12:55:55 PM 38.9689 -84.3206 326° Northwest 493 567 35,900  Level Indianapolis Center
Mon 12:56:57 PM 39.0836 -84.4208 326° Northwest 494 568 35,200 -726 Descending Indianapolis Center
Mon 12:57:59 PM 39.1967 -84.5189 326° Northwest 485 558 34,400 -714 Descending Indianapolis Center
Mon 12:58:00 PM 39.0751 -84.3955 326° Northwest  Level FlightAware Approximate
Mon 12:59:00 PM 39.1721 -84.4802 326° Northwest  Level FlightAware Approximate
Mon 01:00:00 PM 39.2690 -84.5651 326° Northwest  Level FlightAware Approximate
Mon 01:00:02 PM 39.4161 -84.7117 326° Northwest 473 544 33,000  Level Indianapolis Center
Mon 01:01:00 PM 39.3667 -84.6510 326° Northwest  Level FlightAware Approximate
Mon 01:02:19 PM 39.6692 -84.9347 326° Northwest 472 543 28,100  Level Chicago Center
Mon 01:03:21 PM 39.7761 -85.0308 325° Northwest 470 541 28,000 -55 Descending Chicago Center
Mon 01:04:09 PM 39.8644 -85.1081 326° Northwest 472 543 28,000  Level Indianapolis Center
Mon 01:05:11 PM 39.9939 -85.2261 325° Northwest 477 549 28,000  Level Indianapolis Center
Mon 01:06:13 PM 40.1003 -85.3200 326° Northwest 468 539 28,000 -43 Level Indianapolis Center
Mon 01:07:29 PM 40.2258 -85.4339 325° Northwest 467 537 27,900 -345 Descending Chicago Center
Mon 01:08:32 PM 40.3336 -85.5289 326° Northwest 471 542 27,200 -667 Descending Chicago Center
Mon 01:10:20 PM 40.5256 -85.6906 327° Northwest 456 525 26,000 -746 Descending Indianapolis Center
Mon 01:11:21 PM 40.6228 -85.8403 311° West 458 527 25,100 -846 Descending Indianapolis Center
Mon 01:11:38 PM 40.6364 -85.8642 307° West 457 526 24,900 -684 Descending Chicago Center
Mon 01:12:40 PM 40.7181 -86.0128 306° West 453 521 24,200 -613 Descending Chicago Center
Mon 01:14:44 PM 40.8636 -86.2764 306° West 442 509 23,000 -387 Descending Chicago Center
Mon 01:15:46 PM 40.9361 -86.4050 307° West 436 502 23,000  Level Chicago Center
Mon 01:16:48 PM 41.0064 -86.5339 306° West 431 496 23,000 -435 Level Chicago Center
Mon 01:17:50 PM 41.0786 -86.6644 306° West 437 503 22,100 -1,694 Descending Chicago Center
Mon 01:18:52 PM 41.1569 -86.8083 306° West 414 476 19,500 -2,448 Descending Chicago Center
Mon 01:19:55 PM 41.2231 -86.9278 306° West 403 464 17,000 -2,471 Descending Chicago Center
Mon 01:21:00 PM 41.3050 -87.0632 297° West  Level FlightAware Approximate
Mon 01:21:59 PM 41.3431 -87.1544 297° West 376 433 11,800  Level Chicago Center
Mon 01:22:37 PM 41.4000 -87.2333 314° West 361 415 11,000 -490 Descending Chicago TRACON
Mon 01:23:37 PM 41.4667 -87.3167 317° Northwest 362 417 11,000  Level Chicago TRACON
Mon 01:24:37 PM 41.5500 -87.4167 318° Northwest 362 417 11,000 -360 Level Chicago TRACON
Mon 01:26:07 PM 41.6494 -87.5203 322° Northwest 334 384 10,100 -671 Descending Chicago Center
Mon 01:27:09 PM 41.7172 -87.5967 320° Northwest 271 312 9,300 -867 Descending Chicago Center
Mon 01:27:37 PM 41.7500 -87.6333 320° Northwest 256 295 8,800 -547 Descending Chicago TRACON
Mon 01:30:00 PM 41.9011 -87.8177 323° Northwest  Level FlightAware Approximate
Mon 01:33:22 PM 41.7922 -87.9792 312° West 197 227 5,900  Level Chicago Center
Mon 01:34:24 PM 41.7517 -88.0244 220° Southwest 193 222 5,000 -435 Descending Chicago Center
Mon 01:35:26 PM 41.7303 -88.0814 243° Southwest 201 231 5,000 -48 Level Chicago Center
Mon 01:36:28 PM 41.7672 -88.1233 320° Northwest 200 230 4,900 -339 Descending Chicago Center
Mon 01:37:00 PM 41.9667 -87.9000 312° West  Level FlightAware Approximate
Mon 01:37:30 PM 41.8081 -88.0725 43° Northeast 177 204 4,300  Level Chicago Center
Mon 01:38:00 PM 41.9817 -87.9067 312° West  Level Estimated
Mon 01:38:32 PM 41.8422 -88.0317 42° Northeast 169 194 4,000  Level Chicago Center
Mon 01:40:38 PM 41.9167 -87.9500 39° Northeast 149 171 1,800 -967 Descending Chicago TRACON
Mon 01:41:32 PM 41.9333 -87.9167 56° Northeast 119 137 1,100 -778 Descending Chicago TRACON
Mon 01:43:00 PM 41.9667 -87.9000 312° West  Level FlightAware Approximate
Mon 01:50:00 PM 41.9817 -87.9067 312° West  Level Estimated
Mon 01:51:00 PM 41.9817 -87.9067 312° West  Level Estimated
Mon 01:52:00 PM 41.9817 -87.9067 312° West  Level Estimated
Mon 01:53:00 PM 41.9817 -87.9067 312° West  Level Estimated

Login

Don't have an account? Register now (free) for customized features, flight alerts, and more!